sensor_id;sensor_type;location;lat;lon;timestamp;P1;durP1;ratioP1;P2;durP2;ratioP2
18947;SDS011;9607;51.600;7.558;2022-08-21T00:06:17;6.28;;;4.60;;
18947;SDS011;9607;51.600;7.558;2022-08-21T00:29:30;3.58;;;3.28;;
18947;SDS011;9607;51.600;7.558;2022-08-21T00:31:58;3.53;;;3.22;;
18947;SDS011;9607;51.600;7.558;2022-08-21T00:34:25;3.17;;;2.88;;
18947;SDS011;9607;51.600;7.558;2022-08-21T00:36:51;5.45;;;3.95;;
18947;SDS011;9607;51.600;7.558;2022-08-21T00:44:25;6.00;;;4.50;;
18947;SDS011;9607;51.600;7.558;2022-08-21T00:59:51;3.90;;;3.50;;
18947;SDS011;9607;51.600;7.558;2022-08-21T01:36:31;3.72;;;3.25;;
18947;SDS011;9607;51.600;7.558;2022-08-21T01:59:43;3.95;;;3.60;;
18947;SDS011;9607;51.600;7.558;2022-08-21T02:02:10;5.07;;;4.57;;
18947;SDS011;9607;51.600;7.558;2022-08-21T02:08:18;3.85;;;3.55;;
18947;SDS011;9607;51.600;7.558;2022-08-21T02:10:48;3.70;;;3.40;;
18947;SDS011;9607;51.600;7.558;2022-08-21T02:13:15;3.28;;;2.97;;
18947;SDS011;9607;51.600;7.558;2022-08-21T02:15:44;5.47;;;4.10;;
18947;SDS011;9607;51.600;7.558;2022-08-21T02:18:10;5.60;;;3.95;;
18947;SDS011;9607;51.600;7.558;2022-08-21T02:20:40;6.57;;;4.80;;
18947;SDS011;9607;51.600;7.558;2022-08-21T02:23:08;4.65;;;4.10;;
18947;SDS011;9607;51.600;7.558;2022-08-21T02:25:37;4.63;;;4.22;;
18947;SDS011;9607;51.600;7.558;2022-08-21T02:28:05;4.88;;;4.38;;
18947;SDS011;9607;51.600;7.558;2022-08-21T02:30:34;4.75;;;4.10;;
18947;SDS011;9607;51.600;7.558;2022-08-21T02:33:05;5.00;;;4.50;;
18947;SDS011;9607;51.600;7.558;2022-08-21T02:35:32;5.10;;;4.60;;
18947;SDS011;9607;51.600;7.558;2022-08-21T02:38:01;5.55;;;5.05;;
18947;SDS011;9607;51.600;7.558;2022-08-21T02:40:30;5.45;;;4.78;;
18947;SDS011;9607;51.600;7.558;2022-08-21T02:42:59;7.28;;;5.75;;
18947;SDS011;9607;51.600;7.558;2022-08-21T02:45:26;5.85;;;5.25;;
18947;SDS011;9607;51.600;7.558;2022-08-21T02:47:54;5.47;;;4.97;;
18947;SDS011;9607;51.600;7.558;2022-08-21T02:50:25;9.75;;;7.70;;
18947;SDS011;9607;51.600;7.558;2022-08-21T02:52:55;8.95;;;7.60;;
18947;SDS011;9607;51.600;7.558;2022-08-21T02:55:22;7.43;;;6.72;;
18947;SDS011;9607;51.600;7.558;2022-08-21T02:57:51;6.38;;;5.88;;
18947;SDS011;9607;51.600;7.558;2022-08-21T03:00:19;5.93;;;5.15;;
18947;SDS011;9607;51.600;7.558;2022-08-21T03:02:46;4.57;;;4.15;;
18947;SDS011;9607;51.600;7.558;2022-08-21T03:05:14;4.75;;;4.35;;
18947;SDS011;9607;51.600;7.558;2022-08-21T03:07:42;4.65;;;4.25;;
18947;SDS011;9607;51.600;7.558;2022-08-21T03:10:11;5.03;;;4.63;;
18947;SDS011;9607;51.600;7.558;2022-08-21T03:12:38;4.55;;;4.15;;
18947;SDS011;9607;51.600;7.558;2022-08-21T03:15:05;5.75;;;5.25;;
18947;SDS011;9607;51.600;7.558;2022-08-21T03:17:35;5.07;;;4.57;;
18947;SDS011;9607;51.600;7.558;2022-08-21T03:20:02;4.80;;;4.40;;
18947;SDS011;9607;51.600;7.558;2022-08-21T03:22:30;8.18;;;7.20;;
18947;SDS011;9607;51.600;7.558;2022-08-21T03:24:58;7.35;;;6.65;;
18947;SDS011;9607;51.600;7.558;2022-08-21T03:27:26;7.65;;;6.90;;
18947;SDS011;9607;51.600;7.558;2022-08-21T03:29:53;6.72;;;6.13;;
18947;SDS011;9607;51.600;7.558;2022-08-21T03:32:20;8.00;;;7.20;;
18947;SDS011;9607;51.600;7.558;2022-08-21T03:34:47;12.18;;;9.82;;
18947;SDS011;9607;51.600;7.558;2022-08-21T03:37:14;10.75;;;9.25;;
18947;SDS011;9607;51.600;7.558;2022-08-21T03:39:42;9.40;;;8.30;;
18947;SDS011;9607;51.600;7.558;2022-08-21T03:42:11;8.63;;;6.70;;
18947;SDS011;9607;51.600;7.558;2022-08-21T03:44:38;7.00;;;6.30;;
18947;SDS011;9607;51.600;7.558;2022-08-21T03:47:05;6.18;;;5.57;;
18947;SDS011;9607;51.600;7.558;2022-08-21T03:49:32;5.30;;;4.90;;
18947;SDS011;9607;51.600;7.558;2022-08-21T03:51:59;5.90;;;5.40;;
18947;SDS011;9607;51.600;7.558;2022-08-21T03:54:27;5.38;;;4.88;;
18947;SDS011;9607;51.600;7.558;2022-08-21T03:56:53;5.75;;;5.25;;
18947;SDS011;9607;51.600;7.558;2022-08-21T03:59:22;5.88;;;5.38;;
18947;SDS011;9607;51.600;7.558;2022-08-21T04:01:53;7.72;;;6.95;;
18947;SDS011;9607;51.600;7.558;2022-08-21T04:04:21;9.10;;;8.18;;
18947;SDS011;9607;51.600;7.558;2022-08-21T04:06:47;11.13;;;10.02;;
18947;SDS011;9607;51.600;7.558;2022-08-21T04:09:14;10.32;;;9.20;;
18947;SDS011;9607;51.600;7.558;2022-08-21T04:11:41;10.93;;;9.82;;
18947;SDS011;9607;51.600;7.558;2022-08-21T04:14:08;11.20;;;10.10;;
18947;SDS011;9607;51.600;7.558;2022-08-21T04:16:37;10.75;;;9.75;;
18947;SDS011;9607;51.600;7.558;2022-08-21T04:19:04;14.32;;;11.80;;
18947;SDS011;9607;51.600;7.558;2022-08-21T04:21:30;12.60;;;11.30;;
18947;SDS011;9607;51.600;7.558;2022-08-21T04:23:57;12.55;;;11.30;;
18947;SDS011;9607;51.600;7.558;2022-08-21T04:26:24;10.00;;;8.93;;
18947;SDS011;9607;51.600;7.558;2022-08-21T04:28:51;9.48;;;8.55;;
18947;SDS011;9607;51.600;7.558;2022-08-21T04:31:19;9.88;;;8.88;;
18947;SDS011;9607;51.600;7.558;2022-08-21T04:33:47;14.02;;;11.50;;
18947;SDS011;9607;51.600;7.558;2022-08-21T04:36:14;14.50;;;11.70;;
18947;SDS011;9607;51.600;7.558;2022-08-21T04:38:41;10.93;;;8.80;;
18947;SDS011;9607;51.600;7.558;2022-08-21T04:41:08;8.25;;;7.47;;
18947;SDS011;9607;51.600;7.558;2022-08-21T04:43:35;13.68;;;10.68;;
18947;SDS011;9607;51.600;7.558;2022-08-21T04:46:02;11.38;;;9.55;;
18947;SDS011;9607;51.600;7.558;2022-08-21T04:48:29;9.77;;;8.82;;
18947;SDS011;9607;51.600;7.558;2022-08-21T04:50:57;8.23;;;7.53;;
18947;SDS011;9607;51.600;7.558;2022-08-21T04:53:30;9.98;;;8.98;;
18947;SDS011;9607;51.600;7.558;2022-08-21T04:56:01;10.98;;;9.25;;
18947;SDS011;9607;51.600;7.558;2022-08-21T04:58:30;8.68;;;7.88;;
18947;SDS011;9607;51.600;7.558;2022-08-21T05:00:58;12.48;;;10.95;;
18947;SDS011;9607;51.600;7.558;2022-08-21T05:03:27;17.85;;;13.05;;
18947;SDS011;9607;51.600;7.558;2022-08-21T05:05:58;13.55;;;12.15;;
18947;SDS011;9607;51.600;7.558;2022-08-21T05:08:25;10.55;;;9.55;;
18947;SDS011;9607;51.600;7.558;2022-08-21T05:10:54;9.45;;;8.65;;
18947;SDS011;9607;51.600;7.558;2022-08-21T05:13:21;9.82;;;8.82;;
18947;SDS011;9607;51.600;7.558;2022-08-21T05:15:48;8.38;;;7.68;;
18947;SDS011;9607;51.600;7.558;2022-08-21T05:18:15;14.38;;;12.95;;
18947;SDS011;9607;51.600;7.558;2022-08-21T05:20:42;14.27;;;12.38;;
18947;SDS011;9607;51.600;7.558;2022-08-21T05:23:12;12.90;;;11.45;;
18947;SDS011;9607;51.600;7.558;2022-08-21T05:25:40;12.23;;;11.02;;
18947;SDS011;9607;51.600;7.558;2022-08-21T05:28:08;10.90;;;9.90;;
18947;SDS011;9607;51.600;7.558;2022-08-21T05:30:35;10.68;;;9.68;;
18947;SDS011;9607;51.600;7.558;2022-08-21T05:33:04;10.70;;;9.68;;
18947;SDS011;9607;51.600;7.558;2022-08-21T05:35:32;10.18;;;9.27;;
18947;SDS011;9607;51.600;7.558;2022-08-21T05:38:00;9.25;;;8.45;;
18947;SDS011;9607;51.600;7.558;2022-08-21T05:40:28;10.25;;;9.25;;
18947;SDS011;9607;51.600;7.558;2022-08-21T05:42:55;9.07;;;8.27;;
18947;SDS011;9607;51.600;7.558;2022-08-21T05:45:24;9.10;;;8.30;;
18947;SDS011;9607;51.600;7.558;2022-08-21T05:47:53;8.77;;;7.97;;
18947;SDS011;9607;51.600;7.558;2022-08-21T05:50:20;9.63;;;8.73;;
18947;SDS011;9607;51.600;7.558;2022-08-21T05:52:47;8.23;;;7.47;;
18947;SDS011;9607;51.600;7.558;2022-08-21T05:55:14;8.00;;;7.35;;
18947;SDS011;9607;51.600;7.558;2022-08-21T05:57:42;8.15;;;7.45;;
18947;SDS011;9607;51.600;7.558;2022-08-21T06:00:09;9.68;;;8.35;;
18947;SDS011;9607;51.600;7.558;2022-08-21T06:02:37;7.70;;;6.97;;
18947;SDS011;9607;51.600;7.558;2022-08-21T06:05:04;8.23;;;7.43;;
18947;SDS011;9607;51.600;7.558;2022-08-21T06:07:32;7.32;;;6.63;;
18947;SDS011;9607;51.600;7.558;2022-08-21T06:09:59;6.97;;;6.38;;
18947;SDS011;9607;51.600;7.558;2022-08-21T06:12:26;7.22;;;6.53;;
18947;SDS011;9607;51.600;7.558;2022-08-21T06:14:54;7.53;;;6.78;;
18947;SDS011;9607;51.600;7.558;2022-08-21T06:17:21;7.07;;;6.13;;
18947;SDS011;9607;51.600;7.558;2022-08-21T06:19:50;7.53;;;6.80;;
18947;SDS011;9607;51.600;7.558;2022-08-21T06:22:18;7.93;;;7.22;;
18947;SDS011;9607;51.600;7.558;2022-08-21T06:24:45;6.72;;;6.10;;
18947;SDS011;9607;51.600;7.558;2022-08-21T06:27:12;8.13;;;7.43;;
18947;SDS011;9607;51.600;7.558;2022-08-21T06:29:40;11.00;;;9.80;;
18947;SDS011;9607;51.600;7.558;2022-08-21T06:32:09;10.98;;;9.88;;
18947;SDS011;9607;51.600;7.558;2022-08-21T06:34:37;16.88;;;13.48;;
18947;SDS011;9607;51.600;7.558;2022-08-21T06:37:04;13.95;;;12.45;;
18947;SDS011;9607;51.600;7.558;2022-08-21T06:39:32;15.43;;;12.95;;
18947;SDS011;9607;51.600;7.558;2022-08-21T06:41:59;15.75;;;13.20;;
18947;SDS011;9607;51.600;7.558;2022-08-21T06:44:26;15.95;;;12.73;;
18947;SDS011;9607;51.600;7.558;2022-08-21T06:46:53;13.43;;;10.68;;
18947;SDS011;9607;51.600;7.558;2022-08-21T06:49:23;18.38;;;12.93;;
18947;SDS011;9607;51.600;7.558;2022-08-21T06:51:50;20.38;;;15.68;;
18947;SDS011;9607;51.600;7.558;2022-08-21T06:54:16;17.42;;;15.07;;
18947;SDS011;9607;51.600;7.558;2022-08-21T06:56:43;19.02;;;13.80;;
18947;SDS011;9607;51.600;7.558;2022-08-21T06:59:10;12.20;;;9.90;;
18947;SDS011;9607;51.600;7.558;2022-08-21T07:01:37;17.40;;;11.27;;
18947;SDS011;9607;51.600;7.558;2022-08-21T07:04:04;15.73;;;9.38;;
18947;SDS011;9607;51.600;7.558;2022-08-21T07:06:32;13.43;;;7.75;;
18947;SDS011;9607;51.600;7.558;2022-08-21T07:08:59;11.52;;;8.85;;
18947;SDS011;9607;51.600;7.558;2022-08-21T07:11:28;12.63;;;8.98;;
18947;SDS011;9607;51.600;7.558;2022-08-21T07:13:55;12.68;;;8.48;;
18947;SDS011;9607;51.600;7.558;2022-08-21T07:16:22;20.30;;;10.30;;
18947;SDS011;9607;51.600;7.558;2022-08-21T07:18:49;9.60;;;7.10;;
18947;SDS011;9607;51.600;7.558;2022-08-21T07:21:16;12.30;;;7.28;;
18947;SDS011;9607;51.600;7.558;2022-08-21T07:23:46;13.40;;;8.65;;
18947;SDS011;9607;51.600;7.558;2022-08-21T07:26:16;9.48;;;7.43;;
18947;SDS011;9607;51.600;7.558;2022-08-21T07:28:45;15.40;;;8.75;;
18947;SDS011;9607;51.600;7.558;2022-08-21T07:31:14;10.43;;;6.95;;
18947;SDS011;9607;51.600;7.558;2022-08-21T07:33:42;10.65;;;6.28;;
18947;SDS011;9607;51.600;7.558;2022-08-21T07:36:10;10.07;;;6.50;;
18947;SDS011;9607;51.600;7.558;2022-08-21T07:38:38;8.02;;;5.88;;
18947;SDS011;9607;51.600;7.558;2022-08-21T07:41:09;9.82;;;6.32;;
18947;SDS011;9607;51.600;7.558;2022-08-21T07:43:41;12.88;;;6.05;;
18947;SDS011;9607;51.600;7.558;2022-08-21T07:46:08;8.88;;;6.00;;
18947;SDS011;9607;51.600;7.558;2022-08-21T07:48:35;8.73;;;5.85;;
18947;SDS011;9607;51.600;7.558;2022-08-21T07:51:02;9.75;;;6.40;;
18947;SDS011;9607;51.600;7.558;2022-08-21T07:53:33;8.45;;;5.03;;
18947;SDS011;9607;51.600;7.558;2022-08-21T07:56:00;20.05;;;7.03;;
18947;SDS011;9607;51.600;7.558;2022-08-21T07:58:29;8.52;;;5.88;;
18947;SDS011;9607;51.600;7.558;2022-08-21T08:00:56;11.23;;;5.65;;
18947;SDS011;9607;51.600;7.558;2022-08-21T08:03:23;8.90;;;5.20;;
18947;SDS011;9607;51.600;7.558;2022-08-21T08:05:50;5.15;;;3.42;;
18947;SDS011;9607;51.600;7.558;2022-08-21T08:08:17;6.22;;;4.07;;
18947;SDS011;9607;51.600;7.558;2022-08-21T08:10:44;8.18;;;5.43;;
18947;SDS011;9607;51.600;7.558;2022-08-21T08:13:12;11.85;;;6.88;;
18947;SDS011;9607;51.600;7.558;2022-08-21T08:15:40;12.50;;;6.00;;
18947;SDS011;9607;51.600;7.558;2022-08-21T08:18:07;10.38;;;5.10;;
18947;SDS011;9607;51.600;7.558;2022-08-21T08:20:34;8.55;;;5.20;;
18947;SDS011;9607;51.600;7.558;2022-08-21T08:23:01;6.60;;;4.40;;
18947;SDS011;9607;51.600;7.558;2022-08-21T08:25:28;11.35;;;5.53;;
18947;SDS011;9607;51.600;7.558;2022-08-21T08:27:55;9.43;;;4.65;;
18947;SDS011;9607;51.600;7.558;2022-08-21T08:30:21;6.88;;;4.93;;
18947;SDS011;9607;51.600;7.558;2022-08-21T08:32:50;8.15;;;3.95;;
18947;SDS011;9607;51.600;7.558;2022-08-21T08:35:17;13.73;;;5.75;;
18947;SDS011;9607;51.600;7.558;2022-08-21T08:37:44;7.75;;;4.95;;
18947;SDS011;9607;51.600;7.558;2022-08-21T08:40:12;9.65;;;4.57;;
18947;SDS011;9607;51.600;7.558;2022-08-21T08:42:44;7.70;;;4.45;;
18947;SDS011;9607;51.600;7.558;2022-08-21T08:45:13;6.05;;;3.53;;
18947;SDS011;9607;51.600;7.558;2022-08-21T08:47:42;6.13;;;3.63;;
18947;SDS011;9607;51.600;7.558;2022-08-21T08:50:16;9.45;;;4.43;;
18947;SDS011;9607;51.600;7.558;2022-08-21T08:52:47;5.82;;;3.50;;
18947;SDS011;9607;51.600;7.558;2022-08-21T08:55:19;9.68;;;4.78;;
18947;SDS011;9607;51.600;7.558;2022-08-21T08:57:50;9.68;;;4.10;;
18947;SDS011;9607;51.600;7.558;2022-08-21T09:00:20;6.72;;;4.15;;
18947;SDS011;9607;51.600;7.558;2022-08-21T09:02:48;9.40;;;3.63;;
18947;SDS011;9607;51.600;7.558;2022-08-21T09:05:22;8.15;;;3.65;;
18947;SDS011;9607;51.600;7.558;2022-08-21T09:07:57;7.43;;;3.33;;
18947;SDS011;9607;51.600;7.558;2022-08-21T09:10:45;7.43;;;3.20;;
18947;SDS011;9607;51.600;7.558;2022-08-21T09:13:19;6.82;;;3.38;;
18947;SDS011;9607;51.600;7.558;2022-08-21T09:15:51;12.48;;;3.55;;
18947;SDS011;9607;51.600;7.558;2022-08-21T09:18:31;4.50;;;2.45;;
18947;SDS011;9607;51.600;7.558;2022-08-21T09:21:09;8.38;;;2.88;;
18947;SDS011;9607;51.600;7.558;2022-08-21T09:23:47;4.25;;;2.00;;
18947;SDS011;9607;51.600;7.558;2022-08-21T09:26:23;8.48;;;2.50;;
18947;SDS011;9607;51.600;7.558;2022-08-21T09:28:52;9.77;;;2.90;;
18947;SDS011;9607;51.600;7.558;2022-08-21T09:31:22;8.02;;;3.20;;
18947;SDS011;9607;51.600;7.558;2022-08-21T09:33:56;12.05;;;2.25;;
18947;SDS011;9607;51.600;7.558;2022-08-21T09:36:36;3.90;;;1.98;;
18947;SDS011;9607;51.600;7.558;2022-08-21T09:39:05;8.57;;;2.30;;
18947;SDS011;9607;51.600;7.558;2022-08-21T09:41:33;5.32;;;2.33;;
18947;SDS011;9607;51.600;7.558;2022-08-21T09:44:02;7.18;;;2.28;;
18947;SDS011;9607;51.600;7.558;2022-08-21T09:46:30;6.70;;;2.20;;
18947;SDS011;9607;51.600;7.558;2022-08-21T09:48:57;3.85;;;1.50;;
18947;SDS011;9607;51.600;7.558;2022-08-21T09:51:29;7.60;;;2.63;;
18947;SDS011;9607;51.600;7.558;2022-08-21T09:54:00;5.38;;;1.67;;
18947;SDS011;9607;51.600;7.558;2022-08-21T09:56:51;6.85;;;2.00;;
18947;SDS011;9607;51.600;7.558;2022-08-21T09:59:38;5.80;;;1.95;;
18947;SDS011;9607;51.600;7.558;2022-08-21T10:02:18;7.13;;;1.98;;
18947;SDS011;9607;51.600;7.558;2022-08-21T10:04:50;6.38;;;1.88;;
18947;SDS011;9607;51.600;7.558;2022-08-21T10:07:20;3.40;;;1.42;;
18947;SDS011;9607;51.600;7.558;2022-08-21T10:09:58;5.25;;;1.95;;
18947;SDS011;9607;51.600;7.558;2022-08-21T10:12:28;5.75;;;2.25;;
18947;SDS011;9607;51.600;7.558;2022-08-21T10:14:59;5.78;;;1.80;;
18947;SDS011;9607;51.600;7.558;2022-08-21T10:17:37;6.40;;;1.90;;
18947;SDS011;9607;51.600;7.558;2022-08-21T10:20:12;5.72;;;1.95;;
18947;SDS011;9607;51.600;7.558;2022-08-21T10:22:46;7.18;;;2.00;;
18947;SDS011;9607;51.600;7.558;2022-08-21T10:25:25;5.13;;;1.70;;
18947;SDS011;9607;51.600;7.558;2022-08-21T10:28:00;7.35;;;2.70;;
18947;SDS011;9607;51.600;7.558;2022-08-21T10:30:36;4.95;;;1.70;;
18947;SDS011;9607;51.600;7.558;2022-08-21T10:33:12;4.57;;;1.85;;
18947;SDS011;9607;51.600;7.558;2022-08-21T10:35:49;2.95;;;1.50;;
18947;SDS011;9607;51.600;7.558;2022-08-21T10:41:28;5.07;;;1.83;;
18947;SDS011;9607;51.600;7.558;2022-08-21T10:44:12;4.32;;;2.28;;
18947;SDS011;9607;51.600;7.558;2022-08-21T10:46:50;6.22;;;2.30;;
18947;SDS011;9607;51.600;7.558;2022-08-21T10:49:22;6.90;;;2.20;;
18947;SDS011;9607;51.600;7.558;2022-08-21T10:52:02;4.43;;;1.88;;
18947;SDS011;9607;51.600;7.558;2022-08-21T10:55:04;4.35;;;1.92;;
18947;SDS011;9607;51.600;7.558;2022-08-21T10:57:38;6.20;;;2.00;;
18947;SDS011;9607;51.600;7.558;2022-08-21T11:00:10;5.78;;;1.70;;
18947;SDS011;9607;51.600;7.558;2022-08-21T11:02:40;4.20;;;1.80;;
18947;SDS011;9607;51.600;7.558;2022-08-21T11:05:12;3.47;;;1.77;;
18947;SDS011;9607;51.600;7.558;2022-08-21T11:07:44;6.35;;;1.70;;
18947;SDS011;9607;51.600;7.558;2022-08-21T11:10:18;4.28;;;1.80;;
18947;SDS011;9607;51.600;7.558;2022-08-21T11:12:50;6.30;;;1.90;;
18947;SDS011;9607;51.600;7.558;2022-08-21T11:15:26;2.45;;;1.45;;
18947;SDS011;9607;51.600;7.558;2022-08-21T11:18:01;3.75;;;1.48;;
18947;SDS011;9607;51.600;7.558;2022-08-21T11:20:38;5.15;;;1.80;;
18947;SDS011;9607;51.600;7.558;2022-08-21T11:23:10;5.30;;;1.98;;
18947;SDS011;9607;51.600;7.558;2022-08-21T11:25:44;4.60;;;1.60;;
18947;SDS011;9607;51.600;7.558;2022-08-21T11:28:15;4.80;;;1.40;;
18947;SDS011;9607;51.600;7.558;2022-08-21T11:30:50;3.45;;;1.60;;
18947;SDS011;9607;51.600;7.558;2022-08-21T11:33:30;4.68;;;1.63;;
18947;SDS011;9607;51.600;7.558;2022-08-21T11:36:09;2.28;;;1.27;;
18947;SDS011;9607;51.600;7.558;2022-08-21T11:38:42;3.70;;;1.65;;
18947;SDS011;9607;51.600;7.558;2022-08-21T11:41:22;5.10;;;1.40;;
18947;SDS011;9607;51.600;7.558;2022-08-21T11:43:55;3.50;;;1.42;;
18947;SDS011;9607;51.600;7.558;2022-08-21T11:46:36;3.25;;;1.40;;
18947;SDS011;9607;51.600;7.558;2022-08-21T11:49:18;2.40;;;1.10;;
18947;SDS011;9607;51.600;7.558;2022-08-21T11:51:58;4.65;;;1.27;;
18947;SDS011;9607;51.600;7.558;2022-08-21T11:54:35;3.30;;;1.35;;
18947;SDS011;9607;51.600;7.558;2022-08-21T11:57:11;2.03;;;1.05;;
18947;SDS011;9607;51.600;7.558;2022-08-21T11:59:43;3.70;;;1.30;;
18947;SDS011;9607;51.600;7.558;2022-08-21T12:02:15;4.13;;;1.33;;
18947;SDS011;9607;51.600;7.558;2022-08-21T12:04:47;2.83;;;1.20;;
18947;SDS011;9607;51.600;7.558;2022-08-21T12:07:28;4.22;;;1.42;;
18947;SDS011;9607;51.600;7.558;2022-08-21T12:09:57;4.13;;;1.25;;
18947;SDS011;9607;51.600;7.558;2022-08-21T12:12:27;3.17;;;1.55;;
18947;SDS011;9607;51.600;7.558;2022-08-21T12:15:11;2.22;;;1.23;;
18947;SDS011;9607;51.600;7.558;2022-08-21T12:17:51;2.20;;;1.00;;
18947;SDS011;9607;51.600;7.558;2022-08-21T12:20:41;2.03;;;1.00;;
18947;SDS011;9607;51.600;7.558;2022-08-21T12:23:24;1.70;;;0.90;;
18947;SDS011;9607;51.600;7.558;2022-08-21T12:26:00;3.60;;;1.52;;
18947;SDS011;9607;51.600;7.558;2022-08-21T12:28:45;1.50;;;0.98;;
18947;SDS011;9607;51.600;7.558;2022-08-21T12:31:19;2.97;;;1.13;;
18947;SDS011;9607;51.600;7.558;2022-08-21T12:33:50;2.20;;;0.90;;
18947;SDS011;9607;51.600;7.558;2022-08-21T12:36:21;4.45;;;1.38;;
18947;SDS011;9607;51.600;7.558;2022-08-21T12:38:51;1.70;;;0.88;;
18947;SDS011;9607;51.600;7.558;2022-08-21T12:41:24;2.45;;;0.77;;
18947;SDS011;9607;51.600;7.558;2022-08-21T12:43:57;1.75;;;0.90;;
18947;SDS011;9607;51.600;7.558;2022-08-21T12:46:30;2.33;;;0.93;;
18947;SDS011;9607;51.600;7.558;2022-08-21T12:49:03;1.05;;;0.80;;
18947;SDS011;9607;51.600;7.558;2022-08-21T12:51:42;1.83;;;0.80;;
18947;SDS011;9607;51.600;7.558;2022-08-21T12:54:24;1.83;;;0.90;;
18947;SDS011;9607;51.600;7.558;2022-08-21T12:56:57;1.83;;;1.00;;
18947;SDS011;9607;51.600;7.558;2022-08-21T12:59:27;3.10;;;0.90;;
18947;SDS011;9607;51.600;7.558;2022-08-21T13:01:55;3.50;;;1.10;;
18947;SDS011;9607;51.600;7.558;2022-08-21T13:04:25;1.73;;;1.00;;
18947;SDS011;9607;51.600;7.558;2022-08-21T13:06:58;2.05;;;1.00;;
18947;SDS011;9607;51.600;7.558;2022-08-21T13:09:27;2.33;;;0.90;;
18947;SDS011;9607;51.600;7.558;2022-08-21T13:11:55;3.03;;;1.25;;
18947;SDS011;9607;51.600;7.558;2022-08-21T13:14:24;3.58;;;1.27;;
18947;SDS011;9607;51.600;7.558;2022-08-21T13:16:58;2.97;;;0.98;;
18947;SDS011;9607;51.600;7.558;2022-08-21T13:19:29;4.80;;;1.42;;
18947;SDS011;9607;51.600;7.558;2022-08-21T13:21:57;2.17;;;1.00;;
18947;SDS011;9607;51.600;7.558;2022-08-21T13:24:26;1.33;;;0.80;;
18947;SDS011;9607;51.600;7.558;2022-08-21T13:26:55;2.78;;;0.93;;
18947;SDS011;9607;51.600;7.558;2022-08-21T13:29:26;2.35;;;1.10;;
18947;SDS011;9607;51.600;7.558;2022-08-21T13:31:57;1.52;;;0.80;;
18947;SDS011;9607;51.600;7.558;2022-08-21T13:34:29;2.95;;;0.95;;
18947;SDS011;9607;51.600;7.558;2022-08-21T13:36:58;2.22;;;0.90;;
18947;SDS011;9607;51.600;7.558;2022-08-21T13:39:27;1.48;;;0.90;;
18947;SDS011;9607;51.600;7.558;2022-08-21T13:41:54;2.63;;;0.88;;
18947;SDS011;9607;51.600;7.558;2022-08-21T13:44:24;2.70;;;1.10;;
18947;SDS011;9607;51.600;7.558;2022-08-21T13:47:01;2.03;;;0.93;;
18947;SDS011;9607;51.600;7.558;2022-08-21T13:49:33;3.13;;;1.00;;
18947;SDS011;9607;51.600;7.558;2022-08-21T13:52:02;2.70;;;1.05;;
18947;SDS011;9607;51.600;7.558;2022-08-21T13:54:33;3.28;;;1.10;;
18947;SDS011;9607;51.600;7.558;2022-08-21T13:57:01;2.30;;;1.13;;
18947;SDS011;9607;51.600;7.558;2022-08-21T13:59:31;2.08;;;0.75;;
18947;SDS011;9607;51.600;7.558;2022-08-21T14:01:59;1.80;;;1.02;;
18947;SDS011;9607;51.600;7.558;2022-08-21T14:04:35;2.28;;;1.05;;
18947;SDS011;9607;51.600;7.558;2022-08-21T14:07:14;1.30;;;0.93;;
18947;SDS011;9607;51.600;7.558;2022-08-21T14:09:44;1.90;;;1.10;;
18947;SDS011;9607;51.600;7.558;2022-08-21T14:12:12;1.60;;;1.15;;
18947;SDS011;9607;51.600;7.558;2022-08-21T14:14:42;1.83;;;1.20;;
18947;SDS011;9607;51.600;7.558;2022-08-21T14:17:11;4.20;;;1.40;;
18947;SDS011;9607;51.600;7.558;2022-08-21T14:19:41;2.60;;;0.95;;
18947;SDS011;9607;51.600;7.558;2022-08-21T14:22:23;1.92;;;1.02;;
18947;SDS011;9607;51.600;7.558;2022-08-21T14:25:00;3.33;;;1.30;;
18947;SDS011;9607;51.600;7.558;2022-08-21T14:27:29;4.45;;;1.38;;
18947;SDS011;9607;51.600;7.558;2022-08-21T14:29:59;3.53;;;1.30;;
18947;SDS011;9607;51.600;7.558;2022-08-21T14:32:29;3.28;;;1.10;;
18947;SDS011;9607;51.600;7.558;2022-08-21T14:35:02;1.67;;;1.10;;
18947;SDS011;9607;51.600;7.558;2022-08-21T14:37:30;2.83;;;1.17;;
18947;SDS011;9607;51.600;7.558;2022-08-21T14:39:57;2.70;;;0.65;;
18947;SDS011;9607;51.600;7.558;2022-08-21T14:42:24;1.90;;;0.80;;
18947;SDS011;9607;51.600;7.558;2022-08-21T14:44:51;1.42;;;0.77;;
18947;SDS011;9607;51.600;7.558;2022-08-21T14:47:22;1.35;;;0.90;;
18947;SDS011;9607;51.600;7.558;2022-08-21T14:49:49;2.90;;;1.05;;
18947;SDS011;9607;51.600;7.558;2022-08-21T14:52:18;1.77;;;0.70;;
18947;SDS011;9607;51.600;7.558;2022-08-21T14:54:45;2.20;;;0.82;;
18947;SDS011;9607;51.600;7.558;2022-08-21T14:57:12;1.65;;;0.80;;
18947;SDS011;9607;51.600;7.558;2022-08-21T14:59:39;2.00;;;0.82;;
18947;SDS011;9607;51.600;7.558;2022-08-21T15:02:07;1.75;;;0.77;;
18947;SDS011;9607;51.600;7.558;2022-08-21T15:04:36;2.63;;;0.85;;
18947;SDS011;9607;51.600;7.558;2022-08-21T15:07:03;2.20;;;0.85;;
18947;SDS011;9607;51.600;7.558;2022-08-21T15:09:30;1.25;;;0.77;;
18947;SDS011;9607;51.600;7.558;2022-08-21T15:11:58;1.70;;;1.10;;
18947;SDS011;9607;51.600;7.558;2022-08-21T15:14:28;1.00;;;0.90;;
18947;SDS011;9607;51.600;7.558;2022-08-21T15:16:58;1.48;;;0.90;;
18947;SDS011;9607;51.600;7.558;2022-08-21T15:19:25;1.35;;;1.13;;
18947;SDS011;9607;51.600;7.558;2022-08-21T15:21:53;2.72;;;1.40;;
18947;SDS011;9607;51.600;7.558;2022-08-21T15:24:21;1.23;;;0.88;;
18947;SDS011;9607;51.600;7.558;2022-08-21T15:26:47;1.52;;;0.80;;
18947;SDS011;9607;51.600;7.558;2022-08-21T15:29:15;1.75;;;1.42;;
18947;SDS011;9607;51.600;7.558;2022-08-21T15:31:50;3.67;;;1.58;;
18947;SDS011;9607;51.600;7.558;2022-08-21T15:34:19;2.00;;;1.27;;
18947;SDS011;9607;51.600;7.558;2022-08-21T15:36:46;3.13;;;1.40;;
18947;SDS011;9607;51.600;7.558;2022-08-21T15:39:14;2.13;;;1.00;;
18947;SDS011;9607;51.600;7.558;2022-08-21T15:41:41;1.98;;;0.95;;
18947;SDS011;9607;51.600;7.558;2022-08-21T15:44:08;1.38;;;0.82;;
18947;SDS011;9607;51.600;7.558;2022-08-21T15:46:36;0.80;;;0.65;;
18947;SDS011;9607;51.600;7.558;2022-08-21T15:49:04;1.30;;;0.80;;
18947;SDS011;9607;51.600;7.558;2022-08-21T15:51:32;2.78;;;1.10;;
18947;SDS011;9607;51.600;7.558;2022-08-21T15:53:59;3.50;;;0.73;;
18947;SDS011;9607;51.600;7.558;2022-08-21T15:56:28;1.60;;;0.50;;
18947;SDS011;9607;51.600;7.558;2022-08-21T15:59:01;3.80;;;0.98;;
18947;SDS011;9607;51.600;7.558;2022-08-21T16:01:30;1.13;;;0.90;;
18947;SDS011;9607;51.600;7.558;2022-08-21T16:03:57;1.73;;;1.13;;
18947;SDS011;9607;51.600;7.558;2022-08-21T16:06:24;1.55;;;0.82;;
18947;SDS011;9607;51.600;7.558;2022-08-21T16:08:51;1.23;;;0.90;;
18947;SDS011;9607;51.600;7.558;2022-08-21T16:11:19;2.55;;;0.70;;
18947;SDS011;9607;51.600;7.558;2022-08-21T16:13:47;1.80;;;1.05;;
18947;SDS011;9607;51.600;7.558;2022-08-21T16:16:15;2.00;;;1.05;;
18947;SDS011;9607;51.600;7.558;2022-08-21T16:18:46;1.17;;;0.73;;
18947;SDS011;9607;51.600;7.558;2022-08-21T16:21:14;1.20;;;0.80;;
18947;SDS011;9607;51.600;7.558;2022-08-21T16:23:41;1.15;;;0.70;;
18947;SDS011;9607;51.600;7.558;2022-08-21T16:26:09;1.65;;;0.90;;
18947;SDS011;9607;51.600;7.558;2022-08-21T16:28:38;1.98;;;0.90;;
18947;SDS011;9607;51.600;7.558;2022-08-21T16:31:08;1.80;;;0.88;;
18947;SDS011;9607;51.600;7.558;2022-08-21T16:33:38;1.25;;;0.60;;
18947;SDS011;9607;51.600;7.558;2022-08-21T16:36:07;1.17;;;0.70;;
18947;SDS011;9607;51.600;7.558;2022-08-21T16:38:34;2.30;;;0.90;;
18947;SDS011;9607;51.600;7.558;2022-08-21T16:41:02;1.90;;;0.73;;
18947;SDS011;9607;51.600;7.558;2022-08-21T16:43:30;1.13;;;0.80;;
18947;SDS011;9607;51.600;7.558;2022-08-21T16:45:57;3.78;;;1.30;;
18947;SDS011;9607;51.600;7.558;2022-08-21T16:48:26;1.80;;;0.95;;
18947;SDS011;9607;51.600;7.558;2022-08-21T16:50:54;2.00;;;0.85;;
18947;SDS011;9607;51.600;7.558;2022-08-21T16:53:21;3.83;;;1.10;;
18947;SDS011;9607;51.600;7.558;2022-08-21T16:55:48;1.48;;;0.88;;
18947;SDS011;9607;51.600;7.558;2022-08-21T16:58:17;1.73;;;0.93;;
18947;SDS011;9607;51.600;7.558;2022-08-21T17:00:48;2.10;;;0.85;;